sensor_id;sensor_type;location;lat;lon;timestamp;pressure;altitude;pressure_sealevel;temperature;humidity
82375;BME280;72005;50.496;15.798;2023-08-06T00:01:53;94672.75;;;14.79;83.51
82375;BME280;72005;50.496;15.798;2023-08-06T00:04:19;94668.41;;;14.83;83.62
82375;BME280;72005;50.496;15.798;2023-08-06T00:06:44;94665.00;;;14.83;83.54
82375;BME280;72005;50.496;15.798;2023-08-06T00:09:10;94663.13;;;14.83;83.60
82375;BME280;72005;50.496;15.798;2023-08-06T00:11:36;94663.72;;;14.80;83.21
82375;BME280;72005;50.496;15.798;2023-08-06T00:14:02;94660.59;;;14.78;83.47
82375;BME280;72005;50.496;15.798;2023-08-06T00:16:27;94660.59;;;14.78;83.41
82375;BME280;72005;50.496;15.798;2023-08-06T00:18:53;94657.97;;;14.78;83.75
82375;BME280;72005;50.496;15.798;2023-08-06T00:21:19;94660.16;;;14.76;83.45
82375;BME280;72005;50.496;15.798;2023-08-06T00:23:45;94668.25;;;14.80;83.45
82375;BME280;72005;50.496;15.798;2023-08-06T00:26:10;94663.44;;;14.82;83.82
82375;BME280;72005;50.496;15.798;2023-08-06T00:28:36;94665.75;;;14.83;83.67
82375;BME280;72005;50.496;15.798;2023-08-06T00:31:02;94675.09;;;14.81;83.66
82375;BME280;72005;50.496;15.798;2023-08-06T00:33:27;94679.59;;;14.80;83.59
82375;BME280;72005;50.496;15.798;2023-08-06T00:35:53;94684.09;;;14.80;83.74
82375;BME280;72005;50.496;15.798;2023-08-06T00:38:19;94683.13;;;14.76;83.56
82375;BME280;72005;50.496;15.798;2023-08-06T00:40:45;94684.53;;;14.73;83.73
82375;BME280;72005;50.496;15.798;2023-08-06T00:43:11;94697.75;;;14.73;83.63
82375;BME280;72005;50.496;15.798;2023-08-06T00:45:37;94682.19;;;14.72;83.77
82375;BME280;72005;50.496;15.798;2023-08-06T00:48:04;94682.97;;;14.72;84.10
82375;BME280;72005;50.496;15.798;2023-08-06T00:50:31;94661.34;;;14.70;83.73
82375;BME280;72005;50.496;15.798;2023-08-06T00:52:57;94669.59;;;14.69;84.09
82375;BME280;72005;50.496;15.798;2023-08-06T00:55:23;94670.84;;;14.71;83.97
82375;BME280;72005;50.496;15.798;2023-08-06T00:57:49;94670.53;;;14.73;84.05
82375;BME280;72005;50.496;15.798;2023-08-06T01:00:16;94660.28;;;14.71;83.98
82375;BME280;72005;50.496;15.798;2023-08-06T01:02:42;94653.25;;;14.66;84.06
82375;BME280;72005;50.496;15.798;2023-08-06T01:05:08;94664.41;;;14.63;84.34
82375;BME280;72005;50.496;15.798;2023-08-06T01:10:35;94643.13;;;14.60;84.16
82375;BME280;72005;50.496;15.798;2023-08-06T01:15:45;94662.09;;;14.62;84.06
82375;BME280;72005;50.496;15.798;2023-08-06T01:18:11;94660.41;;;14.66;84.02
82375;BME280;72005;50.496;15.798;2023-08-06T01:20:37;94647.94;;;14.66;84.06
82375;BME280;72005;50.496;15.798;2023-08-06T01:23:03;94650.91;;;14.65;84.23
82375;BME280;72005;50.496;15.798;2023-08-06T01:25:33;94649.53;;;14.68;84.06
82375;BME280;72005;50.496;15.798;2023-08-06T01:28:17;94639.69;;;14.59;83.93
82375;BME280;72005;50.496;15.798;2023-08-06T01:30:46;94638.75;;;14.64;84.12
82375;BME280;72005;50.496;15.798;2023-08-06T01:33:16;94647.19;;;14.66;84.26
82375;BME280;72005;50.496;15.798;2023-08-06T01:35:46;94648.44;;;14.69;84.08
82375;BME280;72005;50.496;15.798;2023-08-06T01:38:13;94640.19;;;14.70;84.33
82375;BME280;72005;50.496;15.798;2023-08-06T01:40:39;94633.84;;;14.71;84.29
82375;BME280;72005;50.496;15.798;2023-08-06T01:43:05;94627.94;;;14.74;84.19
82375;BME280;72005;50.496;15.798;2023-08-06T01:45:31;94611.75;;;14.76;84.09
82375;BME280;72005;50.496;15.798;2023-08-06T01:47:56;94620.78;;;14.75;84.08
82375;BME280;72005;50.496;15.798;2023-08-06T01:50:22;94607.09;;;14.73;84.20
82375;BME280;72005;50.496;15.798;2023-08-06T01:52:48;94615.00;;;14.73;84.49
82375;BME280;72005;50.496;15.798;2023-08-06T01:55:14;94604.28;;;14.69;84.46
82375;BME280;72005;50.496;15.798;2023-08-06T01:57:39;94600.69;;;14.65;84.24
82375;BME280;72005;50.496;15.798;2023-08-06T02:00:06;94592.78;;;14.65;84.22
82375;BME280;72005;50.496;15.798;2023-08-06T02:02:32;94590.75;;;14.62;84.36
82375;BME280;72005;50.496;15.798;2023-08-06T02:04:59;94590.75;;;14.62;84.32
82375;BME280;72005;50.496;15.798;2023-08-06T02:07:25;94593.38;;;14.62;84.43
82375;BME280;72005;50.496;15.798;2023-08-06T02:09:50;94591.50;;;14.62;84.44
82375;BME280;72005;50.496;15.798;2023-08-06T02:12:16;94596.19;;;14.65;84.42
82375;BME280;72005;50.496;15.798;2023-08-06T02:14:42;94601.97;;;14.68;84.39
82375;BME280;72005;50.496;15.798;2023-08-06T02:17:07;94596.66;;;14.68;84.35
82375;BME280;72005;50.496;15.798;2023-08-06T02:19:33;94602.25;;;14.66;84.26
82375;BME280;72005;50.496;15.798;2023-08-06T02:21:59;94592.78;;;14.65;84.40
82375;BME280;72005;50.496;15.798;2023-08-06T02:24:25;94598.06;;;14.65;84.47
82375;BME280;72005;50.496;15.798;2023-08-06T02:26:50;94589.81;;;14.66;84.25
82375;BME280;72005;50.496;15.798;2023-08-06T02:29:17;94565.25;;;14.66;84.38
82375;BME280;72005;50.496;15.798;2023-08-06T02:31:43;94555.44;;;14.66;84.11
82375;BME280;72005;50.496;15.798;2023-08-06T02:34:09;94548.00;;;14.69;84.30
82375;BME280;72005;50.496;15.798;2023-08-06T02:36:35;94535.56;;;14.69;84.27
82375;BME280;72005;50.496;15.798;2023-08-06T02:39:01;94527.16;;;14.67;84.24
82375;BME280;72005;50.496;15.798;2023-08-06T02:41:26;94531.66;;;14.66;84.13
82375;BME280;72005;50.496;15.798;2023-08-06T02:43:52;94517.66;;;14.66;84.42
82375;BME280;72005;50.496;15.798;2023-08-06T02:46:18;94519.84;;;14.64;84.26
82375;BME280;72005;50.496;15.798;2023-08-06T02:48:44;94518.78;;;14.65;84.31
82375;BME280;72005;50.496;15.798;2023-08-06T02:51:10;94511.47;;;14.62;84.19
82375;BME280;72005;50.496;15.798;2023-08-06T02:53:36;94509.59;;;14.62;84.23
82375;BME280;72005;50.496;15.798;2023-08-06T02:56:01;94514.09;;;14.62;84.29
82375;BME280;72005;50.496;15.798;2023-08-06T02:58:28;94506.16;;;14.62;84.38
82375;BME280;72005;50.496;15.798;2023-08-06T03:01:04;94508.34;;;14.60;84.31
82375;BME280;72005;50.496;15.798;2023-08-06T03:03:31;94501.34;;;14.64;84.02
82375;BME280;72005;50.496;15.798;2023-08-06T03:05:57;94500.88;;;14.62;84.17
82375;BME280;72005;50.496;15.798;2023-08-06T03:08:23;94494.78;;;14.61;84.15
82375;BME280;72005;50.496;15.798;2023-08-06T03:10:50;94497.75;;;14.60;84.11
82375;BME280;72005;50.496;15.798;2023-08-06T03:13:16;94492.47;;;14.60;84.23
82375;BME280;72005;50.496;15.798;2023-08-06T03:15:42;94497.28;;;14.58;83.96
82375;BME280;72005;50.496;15.798;2023-08-06T03:18:09;94494.78;;;14.53;84.05
82375;BME280;72005;50.496;15.798;2023-08-06T03:20:35;94489.00;;;14.51;84.17
82375;BME280;72005;50.496;15.798;2023-08-06T03:23:01;94496.94;;;14.51;83.87
82375;BME280;72005;50.496;15.798;2023-08-06T03:25:26;94485.41;;;14.47;83.94
82375;BME280;72005;50.496;15.798;2023-08-06T03:27:52;94490.69;;;14.47;83.98
82375;BME280;72005;50.496;15.798;2023-08-06T03:30:18;94478.56;;;14.45;83.92
82375;BME280;72005;50.496;15.798;2023-08-06T03:32:44;94484.63;;;14.46;84.18
82375;BME280;72005;50.496;15.798;2023-08-06T03:35:09;94479.66;;;14.44;84.19
82375;BME280;72005;50.496;15.798;2023-08-06T03:37:35;94466.47;;;14.44;83.99
82375;BME280;72005;50.496;15.798;2023-08-06T03:40:01;94460.69;;;14.42;84.02
82375;BME280;72005;50.496;15.798;2023-08-06T03:42:26;94463.19;;;14.39;83.91
82375;BME280;72005;50.496;15.798;2023-08-06T03:44:52;94457.72;;;14.35;83.94
82375;BME280;72005;50.496;15.798;2023-08-06T03:47:18;94452.75;;;14.34;84.02
82375;BME280;72005;50.496;15.798;2023-08-06T03:49:43;94455.38;;;14.34;84.12
82375;BME280;72005;50.496;15.798;2023-08-06T03:52:09;94449.13;;;14.30;84.13
82375;BME280;72005;50.496;15.798;2023-08-06T03:54:35;94448.69;;;14.28;84.05
82375;BME280;72005;50.496;15.798;2023-08-06T03:57:01;94449.47;;;14.28;84.16
82375;BME280;72005;50.496;15.798;2023-08-06T03:59:26;94443.09;;;14.29;84.10
82375;BME280;72005;50.496;15.798;2023-08-06T04:01:52;94435.16;;;14.29;83.90
82375;BME280;72005;50.496;15.798;2023-08-06T04:04:18;94435.47;;;14.28;84.09
82375;BME280;72005;50.496;15.798;2023-08-06T04:06:43;94435.94;;;14.30;83.97
82375;BME280;72005;50.496;15.798;2023-08-06T04:09:09;94433.13;;;14.26;83.98
82375;BME280;72005;50.496;15.798;2023-08-06T04:11:35;94417.13;;;14.22;84.18
82375;BME280;72005;50.496;15.798;2023-08-06T04:14:01;94407.34;;;14.23;84.18
82375;BME280;72005;50.496;15.798;2023-08-06T04:16:27;94399.41;;;14.23;83.89
82375;BME280;72005;50.496;15.798;2023-08-06T04:18:54;94391.00;;;14.21;84.03
82375;BME280;72005;50.496;15.798;2023-08-06T04:21:21;94392.88;;;14.20;84.05
82375;BME280;72005;50.496;15.798;2023-08-06T04:23:46;94391.63;;;14.18;83.93
82375;BME280;72005;50.496;15.798;2023-08-06T04:26:12;94397.38;;;14.20;83.95
82375;BME280;72005;50.496;15.798;2023-08-06T04:28:38;94393.66;;;14.21;83.85
82375;BME280;72005;50.496;15.798;2023-08-06T04:31:04;94398.78;;;14.17;84.05
82375;BME280;72005;50.496;15.798;2023-08-06T04:33:29;94399.53;;;14.18;84.05
82375;BME280;72005;50.496;15.798;2023-08-06T04:35:55;94394.75;;;14.20;83.97
82375;BME280;72005;50.496;15.798;2023-08-06T04:38:23;94395.22;;;14.22;83.85
82375;BME280;72005;50.496;15.798;2023-08-06T04:40:50;94399.75;;;14.21;84.03
82375;BME280;72005;50.496;15.798;2023-08-06T04:43:15;94393.34;;;14.22;84.14
82375;BME280;72005;50.496;15.798;2023-08-06T04:45:51;94408.88;;;14.24;84.00
82375;BME280;72005;50.496;15.798;2023-08-06T04:48:18;94408.09;;;14.23;84.00
82375;BME280;72005;50.496;15.798;2023-08-06T04:50:48;94405.19;;;14.25;84.16
82375;BME280;72005;50.496;15.798;2023-08-06T04:53:14;94409.97;;;14.23;83.67
82375;BME280;72005;50.496;15.798;2023-08-06T04:55:40;94409.50;;;14.21;83.91
82375;BME280;72005;50.496;15.798;2023-08-06T04:58:06;94421.63;;;14.22;84.05
82375;BME280;72005;50.496;15.798;2023-08-06T05:00:33;94420.25;;;14.25;83.98
82375;BME280;72005;50.496;15.798;2023-08-06T05:03:02;94423.97;;;14.23;83.97
82375;BME280;72005;50.496;15.798;2023-08-06T05:05:28;94428.47;;;14.23;84.22
82375;BME280;72005;50.496;15.798;2023-08-06T05:07:55;94423.97;;;14.23;84.03
82375;BME280;72005;50.496;15.798;2023-08-06T05:10:25;94428.47;;;14.23;84.20
82375;BME280;72005;50.496;15.798;2023-08-06T05:12:51;94429.25;;;14.23;83.93
82375;BME280;72005;50.496;15.798;2023-08-06T05:15:17;94422.09;;;14.24;83.99
82375;BME280;72005;50.496;15.798;2023-08-06T05:17:43;94430.50;;;14.26;83.98
82375;BME280;72005;50.496;15.798;2023-08-06T05:20:09;94428.34;;;14.28;83.83
82375;BME280;72005;50.496;15.798;2023-08-06T05:22:35;94427.72;;;14.31;83.88
82375;BME280;72005;50.496;15.798;2023-08-06T05:25:01;94430.50;;;14.35;84.04
82375;BME280;72005;50.496;15.798;2023-08-06T05:27:27;94429.75;;;14.34;84.21
82375;BME280;72005;50.496;15.798;2023-08-06T05:29:55;94426.94;;;14.31;83.95
82375;BME280;72005;50.496;15.798;2023-08-06T05:32:22;94429.25;;;14.32;83.91
82375;BME280;72005;50.496;15.798;2023-08-06T05:34:48;94436.56;;;14.35;84.06
82375;BME280;72005;50.496;15.798;2023-08-06T05:37:13;94438.75;;;14.33;83.84
82375;BME280;72005;50.496;15.798;2023-08-06T05:39:39;94431.63;;;14.34;84.06
82375;BME280;72005;50.496;15.798;2023-08-06T05:42:05;94433.63;;;14.37;84.09
82375;BME280;72005;50.496;15.798;2023-08-06T05:44:31;94438.31;;;14.40;84.21
82375;BME280;72005;50.496;15.798;2023-08-06T05:46:57;94437.69;;;14.43;84.41
82375;BME280;72005;50.496;15.798;2023-08-06T05:49:22;94438.94;;;14.45;84.35
82375;BME280;72005;50.496;15.798;2023-08-06T05:51:48;94437.84;;;14.47;84.16
82375;BME280;72005;50.496;15.798;2023-08-06T05:54:14;94441.94;;;14.53;84.15
82375;BME280;72005;50.496;15.798;2023-08-06T05:56:39;94442.41;;;14.55;84.23
82375;BME280;72005;50.496;15.798;2023-08-06T05:59:05;94437.59;;;14.57;84.29
82375;BME280;72005;50.496;15.798;2023-08-06T06:01:31;94432.00;;;14.58;84.39
82375;BME280;72005;50.496;15.798;2023-08-06T06:03:57;94435.44;;;14.59;83.98
82375;BME280;72005;50.496;15.798;2023-08-06T06:06:22;94434.81;;;14.62;84.25
82375;BME280;72005;50.496;15.798;2023-08-06T06:08:48;94435.59;;;14.62;84.02
82375;BME280;72005;50.496;15.798;2023-08-06T06:11:14;94435.59;;;14.62;83.81
82375;BME280;72005;50.496;15.798;2023-08-06T06:13:40;94434.81;;;14.62;84.03
82375;BME280;72005;50.496;15.798;2023-08-06T06:16:05;94431.84;;;14.63;83.89
82375;BME280;72005;50.496;15.798;2023-08-06T06:18:31;94436.84;;;14.65;83.75
82375;BME280;72005;50.496;15.798;2023-08-06T06:20:57;94436.50;;;14.66;83.65
82375;BME280;72005;50.496;15.798;2023-08-06T06:23:23;94429.69;;;14.65;83.74
82375;BME280;72005;50.496;15.798;2023-08-06T06:25:49;94425.16;;;14.66;83.70
82375;BME280;72005;50.496;15.798;2023-08-06T06:28:18;94419.88;;;14.66;83.73
82375;BME280;72005;50.496;15.798;2023-08-06T06:30:43;94432.00;;;14.67;83.71
82375;BME280;72005;50.496;15.798;2023-08-06T06:33:09;94423.00;;;14.68;83.72
82375;BME280;72005;50.496;15.798;2023-08-06T06:35:35;94425.31;;;14.70;83.99
82375;BME280;72005;50.496;15.798;2023-08-06T06:38:01;94418.63;;;14.72;84.09
82375;BME280;72005;50.496;15.798;2023-08-06T06:40:27;94436.66;;;14.70;83.92
82375;BME280;72005;50.496;15.798;2023-08-06T06:42:53;94426.91;;;14.71;84.06
82375;BME280;72005;50.496;15.798;2023-08-06T06:45:19;94419.75;;;14.71;84.08
82375;BME280;72005;50.496;15.798;2023-08-06T06:47:45;94425.50;;;14.73;84.25
82375;BME280;72005;50.496;15.798;2023-08-06T06:50:11;94422.53;;;14.75;83.94
82375;BME280;72005;50.496;15.798;2023-08-06T06:52:37;94426.44;;;14.77;84.10
82375;BME280;72005;50.496;15.798;2023-08-06T06:55:03;94425.81;;;14.80;84.05
82375;BME280;72005;50.496;15.798;2023-08-06T06:57:29;94420.53;;;14.80;84.03
82375;BME280;72005;50.496;15.798;2023-08-06T06:59:55;94424.25;;;14.79;83.91
82375;BME280;72005;50.496;15.798;2023-08-06T07:02:20;94416.00;;;14.81;83.96
82375;BME280;72005;50.496;15.798;2023-08-06T07:04:46;94421.91;;;14.78;84.21
82375;BME280;72005;50.496;15.798;2023-08-06T07:07:12;94420.03;;;14.78;84.11
82375;BME280;72005;50.496;15.798;2023-08-06T07:09:38;94423.16;;;14.80;84.13
82375;BME280;72005;50.496;15.798;2023-08-06T07:12:04;94419.91;;;14.83;84.28
82375;BME280;72005;50.496;15.798;2023-08-06T07:14:30;94414.75;;;14.87;84.36
82375;BME280;72005;50.496;15.798;2023-08-06T07:16:55;94414.00;;;14.86;84.27
82375;BME280;72005;50.496;15.798;2023-08-06T07:19:21;94418.66;;;14.89;84.13
82375;BME280;72005;50.496;15.798;2023-08-06T07:21:47;94412.75;;;14.93;84.21
82375;BME280;72005;50.496;15.798;2023-08-06T07:24:12;94411.66;;;14.94;84.06
82375;BME280;72005;50.496;15.798;2023-08-06T07:26:38;94408.41;;;14.97;84.04
82375;BME280;72005;50.496;15.798;2023-08-06T07:29:04;94411.50;;;14.99;84.31
82375;BME280;72005;50.496;15.798;2023-08-06T07:31:30;94403.25;;;15.00;84.11
82375;BME280;72005;50.496;15.798;2023-08-06T07:33:56;94401.88;;;15.03;84.15
82375;BME280;72005;50.496;15.798;2023-08-06T07:36:22;94397.34;;;15.03;84.09
82375;BME280;72005;50.496;15.798;2023-08-06T07:38:48;94397.03;;;15.05;84.09
82375;BME280;72005;50.496;15.798;2023-08-06T07:41:22;94393.78;;;15.08;84.41
82375;BME280;72005;50.496;15.798;2023-08-06T07:43:48;94394.56;;;15.08;84.29
82375;BME280;72005;50.496;15.798;2023-08-06T07:46:14;94390.81;;;15.09;84.20
82375;BME280;72005;50.496;15.798;2023-08-06T07:48:40;94386.28;;;15.10;84.11
82375;BME280;72005;50.496;15.798;2023-08-06T07:51:05;94380.69;;;15.11;84.32
82375;BME280;72005;50.496;15.798;2023-08-06T07:53:31;94379.75;;;15.16;84.11
82375;BME280;72005;50.496;15.798;2023-08-06T07:55:57;94376.16;;;15.21;84.13
82375;BME280;72005;50.496;15.798;2023-08-06T07:58:24;94371.66;;;15.21;84.27
82375;BME280;72005;50.496;15.798;2023-08-06T08:00:51;94374.75;;;15.23;84.28
82375;BME280;72005;50.496;15.798;2023-08-06T08:03:16;94376.78;;;15.26;84.27
82375;BME280;72005;50.496;15.798;2023-08-06T08:05:43;94378.03;;;15.29;84.36
82375;BME280;72005;50.496;15.798;2023-08-06T08:08:09;94377.41;;;15.32;84.13
82375;BME280;72005;50.496;15.798;2023-08-06T08:10:35;94381.44;;;15.38;84.44
82375;BME280;72005;50.496;15.798;2023-08-06T08:13:03;94372.56;;;15.43;84.47
82375;BME280;72005;50.496;15.798;2023-08-06T08:15:30;94370.53;;;15.48;84.56
82375;BME280;72005;50.496;15.798;2023-08-06T08:17:56;94370.97;;;15.50;84.18
82375;BME280;72005;50.496;15.798;2023-08-06T08:20:23;94367.38;;;15.55;84.38
82375;BME280;72005;50.496;15.798;2023-08-06T08:22:48;94367.50;;;15.58;84.24
82375;BME280;72005;50.496;15.798;2023-08-06T08:25:15;94360.50;;;15.63;84.22
82375;BME280;72005;50.496;15.798;2023-08-06T08:27:41;94362.19;;;15.67;84.37
82375;BME280;72005;50.496;15.798;2023-08-06T08:30:07;94359.41;;;15.72;84.57
82375;BME280;72005;50.496;15.798;2023-08-06T08:32:33;94359.22;;;15.77;84.73
82375;BME280;72005;50.496;15.798;2023-08-06T08:34:59;94359.50;;;15.85;84.42
82375;BME280;72005;50.496;15.798;2023-08-06T08:37:25;94363.09;;;15.89;84.28
82375;BME280;72005;50.496;15.798;2023-08-06T08:39:50;94360.09;;;15.90;84.07
82375;BME280;72005;50.496;15.798;2023-08-06T08:42:17;94358.38;;;15.94;84.17
82375;BME280;72005;50.496;15.798;2023-08-06T08:44:44;94357.41;;;15.99;84.06
82375;BME280;72005;50.496;15.798;2023-08-06T08:47:10;94353.81;;;16.04;83.96
82375;BME280;72005;50.496;15.798;2023-08-06T08:49:37;94358.94;;;16.09;83.89
82375;BME280;72005;50.496;15.798;2023-08-06T08:52:04;94356.88;;;16.14;83.88
82375;BME280;72005;50.496;15.798;2023-08-06T08:54:37;94363.09;;;16.18;83.86
82375;BME280;72005;50.496;15.798;2023-08-06T08:57:05;94357.31;;;16.16;83.58
82375;BME280;72005;50.496;15.798;2023-08-06T08:59:33;94352.66;;;16.13;83.38
82375;BME280;72005;50.496;15.798;2023-08-06T09:02:00;94355.66;;;16.12;83.23
82375;BME280;72005;50.496;15.798;2023-08-06T09:04:29;94358.13;;;16.08;83.07
82375;BME280;72005;50.496;15.798;2023-08-06T09:06:58;94361.44;;;16.05;83.54
82375;BME280;72005;50.496;15.798;2023-08-06T09:09:34;94359.88;;;16.04;83.21
82375;BME280;72005;50.496;15.798;2023-08-06T09:12:12;94353.03;;;16.03;83.24
82375;BME280;72005;50.496;15.798;2023-08-06T09:14:40;94350.84;;;16.05;83.56
82375;BME280;72005;50.496;15.798;2023-08-06T09:17:15;94352.41;;;16.06;83.53
82375;BME280;72005;50.496;15.798;2023-08-06T09:19:47;94354.59;;;16.04;83.17
82375;BME280;72005;50.496;15.798;2023-08-06T09:22:14;94353.81;;;16.04;83.21
82375;BME280;72005;50.496;15.798;2023-08-06T09:24:41;94351.47;;;16.02;83.01
82375;BME280;72005;50.496;15.798;2023-08-06T09:27:13;94346.38;;;15.97;83.17
82375;BME280;72005;50.496;15.798;2023-08-06T09:29:41;94349.94;;;16.01;83.28
82375;BME280;72005;50.496;15.798;2023-08-06T09:32:07;94346.19;;;16.02;83.28
82375;BME280;72005;50.496;15.798;2023-08-06T09:34:33;94344.63;;;16.01;83.20
82375;BME280;72005;50.496;15.798;2023-08-06T09:36:59;94345.28;;;15.98;83.23
82375;BME280;72005;50.496;15.798;2023-08-06T09:39:29;94343.25;;;15.95;83.19
82375;BME280;72005;50.496;15.798;2023-08-06T09:41:59;94340.91;;;15.93;83.30
82375;BME280;72005;50.496;15.798;2023-08-06T09:44:27;94339.84;;;15.94;83.58
82375;BME280;72005;50.496;15.798;2023-08-06T09:47:00;94339.63;;;15.99;83.59
82375;BME280;72005;50.496;15.798;2023-08-06T09:49:46;94335.00;;;15.96;83.69
82375;BME280;72005;50.496;15.798;2023-08-06T09:52:13;94341.34;;;16.04;83.78
82375;BME280;72005;50.496;15.798;2023-08-06T09:54:39;94319.84;;;16.06;83.77
82375;BME280;72005;50.496;15.798;2023-08-06T09:57:05;94332.56;;;16.12;83.85
82375;BME280;72005;50.496;15.798;2023-08-06T09:59:32;94337.34;;;16.19;83.82
82375;BME280;72005;50.496;15.798;2023-08-06T10:01:58;94337.06;;;16.20;83.70
82375;BME280;72005;50.496;15.798;2023-08-06T10:04:25;94337.06;;;16.20;83.80
82375;BME280;72005;50.496;15.798;2023-08-06T10:06:51;94327.09;;;16.17;83.38
82375;BME280;72005;50.496;15.798;2023-08-06T10:09:18;94325.53;;;16.16;83.23
82375;BME280;72005;50.496;15.798;2023-08-06T10:11:50;94329.75;;;16.17;83.49
82375;BME280;72005;50.496;15.798;2023-08-06T10:14:21;94326.44;;;16.20;83.43
82375;BME280;72005;50.496;15.798;2023-08-06T10:16:52;94321.16;;;16.20;83.38
82375;BME280;72005;50.496;15.798;2023-08-06T10:19:20;94334.06;;;16.22;83.36
82375;BME280;72005;50.496;15.798;2023-08-06T10:24:57;94329.09;;;16.20;83.20
82375;BME280;72005;50.496;15.798;2023-08-06T10:30:27;94319.78;;;16.14;83.50
82375;BME280;72005;50.496;15.798;2023-08-06T10:32:57;94325.53;;;16.16;83.27
82375;BME280;72005;50.496;15.798;2023-08-06T10:38:17;94321.53;;;16.10;83.15
82375;BME280;72005;50.496;15.798;2023-08-06T10:43:29;94322.94;;;16.08;83.30
82375;BME280;72005;50.496;15.798;2023-08-06T10:45:56;94327.59;;;16.11;83.29
82375;BME280;72005;50.496;15.798;2023-08-06T10:50:56;94318.41;;;16.08;83.37
82375;BME280;72005;50.496;15.798;2023-08-06T10:53:21;94321.38;;;16.07;83.25
82375;BME280;72005;50.496;15.798;2023-08-06T10:55:47;94321.06;;;16.08;83.59
82375;BME280;72005;50.496;15.798;2023-08-06T10:58:15;94314.69;;;16.09;83.72
82375;BME280;72005;50.496;15.798;2023-08-06T11:00:41;94319.78;;;16.14;83.50
82375;BME280;72005;50.496;15.798;2023-08-06T11:03:08;94321.97;;;16.12;83.51
82375;BME280;72005;50.496;15.798;2023-08-06T11:05:35;94329.16;;;16.12;83.34
82375;BME280;72005;50.496;15.798;2023-08-06T11:08:01;94326.81;;;16.10;83.47
82375;BME280;72005;50.496;15.798;2023-08-06T11:10:27;94329.81;;;16.09;83.51
82375;BME280;72005;50.496;15.798;2023-08-06T11:12:53;94322.28;;;16.11;83.70
82375;BME280;72005;50.496;15.798;2023-08-06T11:15:20;94331.94;;;16.15;83.71
82375;BME280;72005;50.496;15.798;2023-08-06T11:17:46;94326.44;;;16.20;83.65
82375;BME280;72005;50.496;15.798;2023-08-06T11:20:13;94336.06;;;16.25;83.87
82375;BME280;72005;50.496;15.798;2023-08-06T11:22:38;94330.94;;;16.29;83.71
82375;BME280;72005;50.496;15.798;2023-08-06T11:25:06;94329.19;;;16.33;83.66
82375;BME280;72005;50.496;15.798;2023-08-06T11:27:32;94333.38;;;16.34;83.95
82375;BME280;72005;50.496;15.798;2023-08-06T11:29:58;94329.31;;;16.36;83.70
82375;BME280;72005;50.496;15.798;2023-08-06T11:32:24;94328.53;;;16.36;83.54
82375;BME280;72005;50.496;15.798;2023-08-06T11:34:50;94327.88;;;16.39;83.52
82375;BME280;72005;50.496;15.798;2023-08-06T11:37:16;94324.13;;;16.40;83.65
82375;BME280;72005;50.496;15.798;2023-08-06T11:39:46;94319.75;;;16.44;83.68
82375;BME280;72005;50.496;15.798;2023-08-06T11:42:13;94322.22;;;16.49;83.59
82375;BME280;72005;50.496;15.798;2023-08-06T11:44:40;94320.13;;;16.55;83.73
82375;BME280;72005;50.496;15.798;2023-08-06T11:47:13;94323.38;;;16.60;83.76
82375;BME280;72005;50.496;15.798;2023-08-06T11:52:24;94328.88;;;16.55;83.30
82375;BME280;72005;50.496;15.798;2023-08-06T11:55:03;94332.94;;;16.53;83.77
82375;BME280;72005;50.496;15.798;2023-08-06T11:57:32;94331.50;;;16.55;83.17
82375;BME280;72005;50.496;15.798;2023-08-06T12:00:08;94332.94;;;16.53;82.96
82375;BME280;72005;50.496;15.798;2023-08-06T12:02:34;94330.59;;;16.51;82.94
82375;BME280;72005;50.496;15.798;2023-08-06T12:05:04;94329.69;;;16.47;82.78
82375;BME280;72005;50.496;15.798;2023-08-06T12:07:37;94328.81;;;16.43;82.74
82375;BME280;72005;50.496;15.798;2023-08-06T12:10:03;94337.97;;;16.45;82.90
82375;BME280;72005;50.496;15.798;2023-08-06T12:12:29;94338.13;;;16.49;83.07
82375;BME280;72005;50.496;15.798;2023-08-06T12:14:55;94337.47;;;16.52;83.10
82375;BME280;72005;50.496;15.798;2023-08-06T12:17:25;94339.00;;;16.53;83.06
82375;BME280;72005;50.496;15.798;2023-08-06T12:19:51;94344.31;;;16.53;82.93
82375;BME280;72005;50.496;15.798;2023-08-06T12:22:17;94339.66;;;16.50;82.65
82375;BME280;72005;50.496;15.798;2023-08-06T12:24:44;94342.66;;;16.49;82.45
82375;BME280;72005;50.496;15.798;2023-08-06T12:27:10;94338.75;;;16.46;82.38
82375;BME280;72005;50.496;15.798;2023-08-06T12:29:40;94335.78;;;16.47;82.60
82375;BME280;72005;50.496;15.798;2023-08-06T12:32:06;94333.72;;;16.53;83.12
82375;BME280;72005;50.496;15.798;2023-08-06T12:34:33;94347.88;;;16.57;82.88
82375;BME280;72005;50.496;15.798;2023-08-06T12:36:58;94344.25;;;16.62;83.13
82375;BME280;72005;50.496;15.798;2023-08-06T12:39:24;94350.78;;;16.64;82.86
82375;BME280;72005;50.496;15.798;2023-08-06T12:41:50;94352.97;;;16.62;82.88
82375;BME280;72005;50.496;15.798;2023-08-06T12:44:16;94356.72;;;16.61;82.54
82375;BME280;72005;50.496;15.798;2023-08-06T12:46:41;94364.69;;;16.61;82.43
82375;BME280;72005;50.496;15.798;2023-08-06T12:49:07;94357.84;;;16.60;82.52
82375;BME280;72005;50.496;15.798;2023-08-06T12:51:32;94360.50;;;16.60;82.60
82375;BME280;72005;50.496;15.798;2023-08-06T12:53:59;94353.19;;;16.57;82.39
82375;BME280;72005;50.496;15.798;2023-08-06T12:56:25;94363.31;;;16.55;82.31
82375;BME280;72005;50.496;15.798;2023-08-06T12:58:51;94367.84;;;16.55;82.38
82375;BME280;72005;50.496;15.798;2023-08-06T13:01:16;94371.94;;;16.52;82.52
82375;BME280;72005;50.496;15.798;2023-08-06T13:03:42;94379.41;;;16.50;82.56
82375;BME280;72005;50.496;15.798;2023-08-06T13:06:08;94377.41;;;16.47;82.44
82375;BME280;72005;50.496;15.798;2023-08-06T13:08:36;94382.13;;;16.41;82.08
82375;BME280;72005;50.496;15.798;2023-08-06T13:11:01;94391.47;;;16.39;82.31